createdAt,value
2017-12-12T00:01:29.789Z,13
2017-12-12T00:11:28.524Z,12
2017-12-12T00:21:27.373Z,13
2017-12-12T00:31:27.120Z,13
2017-12-12T00:41:29.186Z,12
2017-12-12T00:51:29.195Z,12
2017-12-12T01:01:27.443Z,12
2017-12-12T01:11:26.801Z,12
2017-12-12T01:21:28.187Z,13
2017-12-12T01:31:28.731Z,13
2017-12-12T01:41:27.503Z,13
2017-12-12T01:51:29.272Z,13
2017-12-12T02:01:30.259Z,13
2017-12-12T02:11:27.906Z,13
2017-12-12T02:21:28.249Z,13
2017-12-12T02:31:29.297Z,13
2017-12-12T02:41:27.779Z,13
2017-12-12T02:51:28.447Z,13
2017-12-12T03:01:27.639Z,13
2017-12-12T03:11:27.426Z,13
2017-12-12T03:21:28.472Z,13
2017-12-12T03:31:26.818Z,13
2017-12-12T03:41:29.554Z,13
2017-12-12T03:51:27.541Z,13
2017-12-12T04:01:28.537Z,13
2017-12-12T04:11:26.846Z,13
2017-12-12T04:21:27.823Z,13
2017-12-12T04:31:28.354Z,13
2017-12-12T04:41:27.089Z,13
2017-12-12T04:51:28.716Z,13
2017-12-12T05:01:26.906Z,13
2017-12-12T05:11:27.254Z,13
2017-12-12T05:21:26.771Z,13
2017-12-12T05:31:28.015Z,13
2017-12-12T05:41:28.569Z,13
2017-12-12T05:51:28.213Z,13
2017-12-12T06:01:27.853Z,13
2017-12-12T06:11:27.053Z,13
2017-12-12T06:21:29.280Z,13
2017-12-12T06:31:28.220Z,13
2017-12-12T06:41:27.724Z,13
2017-12-12T06:51:30.034Z,14
2017-12-12T07:01:28.132Z,14
2017-12-12T07:11:29.318Z,14
2017-12-12T07:21:26.753Z,14
2017-12-12T07:31:30.154Z,14
2017-12-12T07:41:27.786Z,14
2017-12-12T07:51:28.192Z,14
2017-12-12T08:01:29.124Z,14
2017-12-12T08:11:28.672Z,14
2017-12-12T08:21:27.084Z,14
2017-12-12T08:31:27.923Z,15
2017-12-12T08:41:27.375Z,15
2017-12-12T08:51:27.146Z,15
2017-12-12T09:01:31.644Z,15
2017-12-12T09:11:27.970Z,15
2017-12-12T09:21:27.940Z,14
2017-12-12T09:31:27.253Z,14
2017-12-12T09:41:29.151Z,13
2017-12-12T09:51:27.709Z,13
2017-12-12T10:01:26.905Z,13
2017-12-12T10:11:27.431Z,13
2017-12-12T10:21:27.912Z,12
2017-12-12T10:31:27.747Z,13
2017-12-12T10:41:27.516Z,12
2017-12-12T10:51:27.042Z,13
2017-12-12T11:01:27.628Z,12
2017-12-12T11:11:26.796Z,12
2017-12-12T11:21:27.468Z,12
2017-12-12T11:31:26.761Z,12
2017-12-12T11:41:27.960Z,13
2017-12-12T11:51:29.811Z,13
2017-12-12T12:01:27.695Z,13
2017-12-12T12:11:27.300Z,13
2017-12-12T12:21:28.022Z,13
2017-12-12T12:31:27.227Z,13
2017-12-12T12:41:28.215Z,13
2017-12-12T12:51:27.788Z,13
2017-12-12T13:01:27.230Z,13
2017-12-12T13:11:27.567Z,13
2017-12-12T13:21:27.892Z,13
2017-12-12T13:31:28.195Z,13
2017-12-12T13:41:29.792Z,13
2017-12-12T13:51:27.121Z,13
2017-12-12T14:01:29.089Z,13
2017-12-12T14:11:27.322Z,13
2017-12-12T14:21:28.255Z,12
2017-12-12T14:31:27.812Z,12
2017-12-12T14:41:27.593Z,12
2017-12-12T14:51:27.568Z,12
2017-12-12T15:01:27.055Z,12
2017-12-12T15:11:29.071Z,12
2017-12-12T15:21:29.004Z,12
2017-12-12T15:31:28.711Z,12
2017-12-12T15:41:26.891Z,12
2017-12-12T15:51:28.434Z,12
2017-12-12T16:01:26.715Z,11
2017-12-12T16:11:27.561Z,11
2017-12-12T16:21:28.105Z,11
2017-12-12T16:31:28.087Z,11
2017-12-12T16:41:28.755Z,11
2017-12-12T16:51:27.362Z,11
2017-12-12T17:01:26.814Z,10
2017-12-12T17:11:27.343Z,11
2017-12-12T17:21:27.261Z,11
2017-12-12T17:31:27.428Z,11
2017-12-12T17:41:27.969Z,10
2017-12-12T17:51:29.216Z,10
2017-12-12T18:01:28.682Z,10
2017-12-12T18:11:27.420Z,10
2017-12-12T18:21:28.500Z,10
2017-12-12T18:31:26.854Z,10
2017-12-12T18:41:27.770Z,10
2017-12-12T18:51:27.348Z,10
2017-12-12T19:01:26.792Z,10
2017-12-12T19:11:27.218Z,10
2017-12-12T19:21:27.121Z,10
2017-12-12T19:31:27.827Z,9
2017-12-12T19:41:33.862Z,9
2017-12-12T19:51:27.296Z,9
2017-12-12T20:01:29.557Z,9
2017-12-12T20:11:27.187Z,9
2017-12-12T20:21:27.726Z,9
2017-12-12T20:31:43.280Z,9
2017-12-12T20:41:27.742Z,9
2017-12-12T20:51:29.576Z,9
2017-12-12T21:01:27.957Z,9
2017-12-12T21:11:27.394Z,9
2017-12-12T21:21:26.887Z,9
2017-12-12T21:31:29.227Z,8
2017-12-12T21:41:27.715Z,8
2017-12-12T21:51:27.494Z,8
2017-12-12T22:01:27.181Z,8
2017-12-12T22:11:27.303Z,8
2017-12-12T22:21:26.728Z,8
2017-12-12T22:31:28.013Z,8
2017-12-12T22:41:27.411Z,8
2017-12-12T22:51:28.367Z,8
2017-12-12T23:01:26.946Z,8
2017-12-12T23:11:28.924Z,8
2017-12-12T23:21:30.189Z,8
2017-12-12T23:31:27.898Z,8
2017-12-12T23:41:28.507Z,8
2017-12-12T23:51:26.608Z,8
